Time;durP1;ratioP1;P1;durP2;ratioP2;P2;SDS_P1;SDS_P2;PMS_P1;PMS_P2;Temp;Humidity;BMP_temperature;BMP_pressure;BME280_temperature;BME280_humidity;BME280_pressure;Samples;Min_cycle;Max_cycle;Signal;HPM_P1;HPM_P2
2022/10/12 00:08:12;;;;;;;78.90;54.90;;;;;;;1.46;78.75;100486.59;436264;1282;143286;-64
2022/10/12 00:18:18;;;;;;;69.30;53.40;;;;;;;1.36;78.71;100486.02;436876;1284;143920;-67
2022/10/12 00:28:24;;;;;;;75.10;54.60;;;;;;;1.28;78.77;100491.30;436864;1280;143730;-67
2022/10/12 00:38:30;;;;;;;72.20;50.50;;;;;;;1.18;78.93;100489.50;430085;1281;146049;-69
2022/10/12 00:48:35;;;;;;;67.30;48.50;;;;;;;1.10;79.32;100491.65;436899;1280;142535;-69
2022/10/12 00:58:41;;;;;;;65.80;46.70;;;;;;;1.02;78.99;100497.42;436897;1275;142700;-67
2022/10/12 01:08:48;;;;;;;66.10;47.90;;;;;;;0.93;79.28;100497.86;436087;1282;143619;-67
2022/10/12 01:19:01;;;;;;;65.10;45.50;;;;;;;0.89;79.42;100496.70;436820;1283;144249;-68
2022/10/12 01:29:29;;;;;;;58.90;42.60;;;;;;;0.79;79.58;100499.72;436812;1280;142729;-68
2022/10/12 01:39:41;;;;;;;55.30;42.50;;;;;;;0.72;79.42;100503.74;428810;1282;213162;-68
2022/10/12 01:49:46;;;;;;;59.90;42.20;;;;;;;0.64;79.70;100506.55;436883;1288;143036;-67
2022/10/12 02:00:02;;;;;;;60.20;42.70;;;;;;;0.57;79.70;100514.36;433496;1280;146229;-66
2022/10/12 02:10:12;;;;;;;56.30;41.20;;;;;;;0.51;79.79;100517.33;420834;1281;143037;-68
2022/10/12 02:20:20;;;;;;;58.50;42.40;;;;;;;0.44;79.91;100515.86;436185;1281;145289;-67
2022/10/12 02:30:26;;;;;;;61.10;44.30;;;;;;;0.37;79.91;100517.27;436604;1282;142945;-68
2022/10/12 02:40:38;;;;;;;64.80;46.30;;;;;;;0.34;79.94;100522.63;425501;1275;145530;-67
2022/10/12 02:50:44;;;;;;;59.20;39.40;;;;;;;0.27;80.30;100522.33;436136;1281;142437;-68
2022/10/12 03:00:50;;;;;;;49.30;36.50;;;;;;;0.24;80.27;100519.42;436791;1283;144772;-68
2022/10/12 03:11:00;;;;;;;61.60;39.00;;;;;;;0.18;80.23;100522.56;436845;1279;143232;-67
2022/10/12 03:21:06;;;;;;;54.10;38.60;;;;;;;0.14;80.08;100521.56;436059;1282;142057;-67
2022/10/12 03:31:12;;;;;;;50.30;37.10;;;;;;;0.07;80.39;100523.66;436817;1282;143808;-68
2022/10/12 03:41:17;;;;;;;57.80;38.80;;;;;;;0.03;80.56;100521.45;426380;1288;159800;-67
2022/10/12 03:51:23;;;;;;;56.80;38.00;;;;;;;-0.04;80.64;100518.90;436839;1284;143501;-68
2022/10/12 04:01:29;;;;;;;57.20;37.80;;;;;;;-0.08;80.93;100524.25;436875;1282;142436;-67
2022/10/12 04:11:34;;;;;;;54.90;38.00;;;;;;;-0.15;80.59;100533.06;436080;1282;199511;-67
2022/10/12 04:21:40;;;;;;;54.10;40.00;;;;;;;-0.19;80.88;100530.50;436805;1281;142546;-68
2022/10/12 04:31:46;;;;;;;53.60;36.60;;;;;;;-0.24;80.68;100532.77;436883;1282;142510;-68
2022/10/12 04:41:51;;;;;;;54.30;37.50;;;;;;;-0.28;80.67;100539.31;425370;1282;141922;-69
2022/10/12 04:51:57;;;;;;;64.30;41.60;;;;;;;-0.34;81.01;100542.45;436801;1278;143281;-69
2022/10/12 05:02:03;;;;;;;53.80;40.60;;;;;;;-0.35;81.04;100545.20;436887;1281;142876;-67
2022/10/12 05:12:09;;;;;;;57.90;39.60;;;;;;;-0.30;81.36;100542.60;436113;1280;143536;-68
2022/10/12 05:22:14;;;;;;;62.60;41.30;;;;;;;-0.12;81.15;100554.74;432765;1281;143864;-67
2022/10/12 05:32:20;;;;;;;58.90;39.00;;;;;;;0.11;81.36;100556.19;434670;1274;144034;-69
2022/10/12 05:42:27;;;;;;;63.00;40.60;;;;;;;0.43;81.55;100565.48;420713;1281;199217;-68
2022/10/12 05:52:32;;;;;;;66.80;38.70;;;;;;;1.13;81.83;100561.27;434143;1282;143564;-69
2022/10/12 06:02:38;;;;;;;62.70;37.10;;;;;;;3.05;81.79;100563.59;436096;1281;145194;-68
2022/10/12 06:12:44;;;;;;;42.30;29.90;;;;;;;7.64;79.05;100564.95;436835;1275;141977;-68
2022/10/12 06:22:50;;;;;;;39.50;29.50;;;;;;;12.08;72.99;100560.38;436808;1284;143291;-70
2022/10/12 06:32:55;;;;;;;47.60;29.00;;;;;;;16.09;67.35;100563.09;435188;1288;145524;-68
2022/10/12 06:43:01;;;;;;;37.90;25.20;;;;;;;19.93;61.67;100568.50;428427;1274;143483;-69
2022/10/12 06:53:07;;;;;;;25.20;22.50;;;;;;;22.91;55.91;100556.42;436849;1282;142099;-68
2022/10/12 07:03:15;;;;;;;26.80;21.50;;;;;;;25.41;51.38;100554.61;436368;1285;141748;-68
2022/10/12 07:13:21;;;;;;;26.70;20.20;;;;;;;27.61;46.83;100548.40;436785;1274;142493;-67
2022/10/12 07:23:25;;;;;;;;;;;;;;;30.23;43.09;100550.11;436236;1281;142446;-69
2022/10/12 07:33:33;;;;;;;24.10;18.20;;;;;;;32.75;39.66;100551.70;437132;1274;129418;-69
2022/10/12 07:43:39;;;;;;;24.20;18.00;;;;;;;33.85;36.52;100551.82;425301;1282;144058;-69
2022/10/12 07:53:45;;;;;;;28.20;16.90;;;;;;;34.94;33.84;100552.39;436131;1281;144390;-68
2022/10/12 08:03:52;;;;;;;20.20;15.90;;;;;;;35.60;31.45;100544.17;436839;1281;142732;-69
2022/10/12 08:14:04;;;;;;;16.00;12.40;;;;;;;35.68;30.22;100543.34;436891;1282;143452;-68
2022/10/12 08:24:11;;;;;;;10.30;7.30;;;;;;;36.54;28.95;100544.77;436132;1275;141185;-69
2022/10/12 08:34:17;;;;;;;14.40;6.10;;;;;;;38.06;27.52;100540.23;435751;1283;143993;-68
2022/10/12 08:44:44;;;;;;;13.50;6.90;;;;;;;38.67;25.77;100540.59;429882;1281;143707;-69
2022/10/12 08:54:50;;;;;;;10.00;6.00;;;;;;;35.92;25.45;100537.41;436910;1281;141881;-68
2022/10/12 09:05:00;;;;;;;7.90;4.30;;;;;;;34.42;25.41;100538.83;436780;1274;141811;-69
2022/10/12 09:15:14;;;;;;;11.50;4.90;;;;;;;28.06;27.46;100539.96;434249;1281;142724;-69
2022/10/12 09:25:24;;;;;;;10.00;4.70;;;;;;;23.49;30.26;100538.86;436700;1287;151818;-68
2022/10/12 09:35:30;;;;;;;9.40;4.50;;;;;;;19.64;33.37;100543.73;433924;1284;142468;-68
2022/10/12 09:45:37;;;;;;;7.30;3.60;;;;;;;17.79;35.95;100554.36;428291;1281;143190;-68
2022/10/12 09:55:55;;;;;;;6.20;3.30;;;;;;;16.88;37.14;100556.64;436777;1282;142305;-69
2022/10/12 10:06:06;;;;;;;4.90;2.70;;;;;;;15.95;38.28;100563.71;436175;1286;144462;-69
2022/10/12 10:16:13;;;;;;;4.90;2.00;;;;;;;15.58;39.19;100564.57;431092;1281;142746;-67
2022/10/12 10:26:22;;;;;;;7.30;3.30;;;;;;;15.28;39.41;100560.59;436119;1282;144291;-62
2022/10/12 10:36:29;;;;;;;5.10;2.30;;;;;;;15.22;40.53;100560.47;433016;1275;167115;-61
2022/10/12 10:46:37;;;;;;;4.30;2.40;;;;;;;15.23;41.13;100550.38;436894;1287;143171;-62
2022/10/12 10:56:46;;;;;;;3.30;1.90;;;;;;;15.63;41.26;100544.80;436183;1283;142261;-62
2022/10/12 11:06:57;;;;;;;3.70;2.50;;;;;;;15.66;40.69;100534.39;433461;1287;142090;-63
2022/10/12 11:17:07;;;;;;;7.10;3.40;;;;;;;15.53;40.64;100530.82;436830;1281;142130;-63
2022/10/12 11:27:19;;;;;;;5.00;2.10;;;;;;;15.28;40.77;100527.09;436293;1281;141375;-63
2022/10/12 11:37:32;;;;;;;9.20;2.20;;;;;;;15.14;41.08;100519.23;433693;1282;141932;-62
2022/10/12 11:47:45;;;;;;;4.10;1.70;;;;;;;15.09;41.31;100513.75;430137;1282;142017;-62
2022/10/12 11:57:53;;;;;;;5.90;2.10;;;;;;;15.14;41.40;100506.86;436931;1283;141835;-62
2022/10/12 12:07:59;;;;;;;8.60;1.70;;;;;;;15.01;41.57;100507.05;436904;1288;143275;-62
2022/10/12 12:18:13;;;;;;;3.50;1.60;;;;;;;15.05;41.73;100501.14;436131;1280;141636;-63
2022/10/12 12:28:23;;;;;;;4.30;2.20;;;;;;;14.95;42.09;100491.55;436857;1285;142617;-62
2022/10/12 12:38:33;;;;;;;2.50;1.70;;;;;;;15.11;42.23;100493.84;431592;1281;141620;-62
2022/10/12 12:48:59;;;;;;;7.00;2.30;;;;;;;15.04;42.27;100493.98;436926;1279;141727;-63
2022/10/12 12:59:33;;;;;;;5.50;2.20;;;;;;;15.31;42.49;100487.36;436858;1286;143071;-62
2022/10/12 13:09:59;;;;;;;3.20;1.20;;;;;;;15.50;42.44;100479.14;436552;1287;197023;-63
2022/10/12 13:20:12;;;;;;;11.70;4.20;;;;;;;15.18;42.50;100476.75;436868;1286;142206;-62
2022/10/12 13:30:26;;;;;;;9.90;3.90;;;;;;;14.72;43.13;100474.07;436528;1281;197368;-64
2022/10/12 13:40:36;;;;;;;3.70;1.90;;;;;;;14.39;43.64;100473.78;428361;1283;141671;-63
2022/10/12 13:50:51;;;;;;;12.90;2.50;;;;;;;14.12;44.08;100473.02;436102;1282;143783;-62
2022/10/12 14:00:58;;;;;;;6.20;2.20;;;;;;;13.94;44.98;100470.85;436936;1282;142508;-61
2022/10/12 14:11:06;;;;;;;8.10;2.40;;;;;;;13.93;45.16;100462.13;436933;1285;143388;-63
2022/10/12 14:21:25;;;;;;;5.40;1.90;;;;;;;13.94;45.00;100460.47;436370;1275;211925;-62
2022/10/12 14:31:58;;;;;;;7.50;2.30;;;;;;;14.00;45.36;100456.20;436703;1281;142607;-61
2022/10/12 14:42:17;;;;;;;8.40;2.60;;;;;;;13.92;45.77;100451.12;426490;1282;143419;-62
2022/10/12 14:52:25;;;;;;;6.70;2.70;;;;;;;13.81;46.02;100448.23;436861;1277;142611;-60
2022/10/12 15:02:33;;;;;;;11.20;2.80;;;;;;;13.66;46.31;100447.96;436134;1282;141892;-62
2022/10/12 15:12:38;;;;;;;5.00;2.60;;;;;;;13.46;46.84;100448.33;436890;1280;141485;-62
2022/10/12 15:22:45;;;;;;;6.60;2.70;;;;;;;13.28;47.08;100448.38;436796;1282;142511;-68
2022/10/12 15:32:51;;;;;;;5.40;2.80;;;;;;;13.06;47.68;100445.10;436059;1275;142886;-69
2022/10/12 15:42:57;;;;;;;9.40;3.70;;;;;;;12.83;48.47;100446.31;434134;1281;143603;-68
2022/10/12 15:53:03;;;;;;;7.60;3.50;;;;;;;12.54;49.10;100442.23;436866;1282;142145;-69
2022/10/12 16:03:16;;;;;;;11.70;4.40;;;;;;;12.28;49.66;100444.20;436060;1274;143446;-67
2022/10/12 16:13:29;;;;;;;20.50;7.20;;;;;;;12.08;50.21;100449.52;436878;1273;141146;-68
2022/10/12 16:23:37;;;;;;;7.20;4.30;;;;;;;11.91;50.78;100449.78;436141;1273;142381;-67
2022/10/12 16:33:43;;;;;;;11.20;5.60;;;;;;;11.72;51.12;100445.01;436689;1287;142549;-69
2022/10/12 16:43:49;;;;;;;10.40;5.00;;;;;;;11.50;51.68;100446.94;434117;1281;145369;-67
2022/10/12 16:53:56;;;;;;;15.70;6.90;;;;;;;11.29;52.52;100451.73;436213;1281;196516;-68
2022/10/12 17:04:01;;;;;;;19.00;8.50;;;;;;;11.11;53.49;100454.40;436881;1281;142668;-68
2022/10/12 17:14:10;;;;;;;20.00;9.10;;;;;;;10.89;54.22;100454.11;436850;1282;142614;-67
2022/10/12 17:24:18;;;;;;;17.10;9.80;;;;;;;10.53;55.16;100454.70;436446;1286;195062;-68
2022/10/12 17:34:24;;;;;;;;;;;;;;;10.08;56.24;100455.10;436918;1281;142612;-68
2022/10/12 17:44:29;;;;;;;19.00;11.30;;;;;;;9.61;57.50;100456.77;433626;1281;130355;-68
2022/10/12 17:54:35;;;;;;;18.50;8.10;;;;;;;9.28;58.39;100450.06;436911;1281;142937;-68
2022/10/12 18:04:41;;;;;;;14.40;8.60;;;;;;;9.05;59.61;100450.89;436843;1281;143528;-68
2022/10/12 18:14:47;;;;;;;12.70;7.80;;;;;;;8.82;60.39;100447.34;436033;1288;142798;-68
2022/10/12 18:24:52;;;;;;;16.00;8.70;;;;;;;8.56;60.93;100453.48;436833;1281;142975;-68
2022/10/12 18:34:58;;;;;;;16.40;9.20;;;;;;;8.30;61.71;100458.14;436878;1281;142654;-69
2022/10/12 18:45:05;;;;;;;24.90;13.00;;;;;;;7.96;62.32;100463.17;422515;1275;143608;-68
2022/10/12 18:55:11;;;;;;;19.90;14.50;;;;;;;7.48;62.70;100468.63;436854;1274;183892;-68
2022/10/12 19:05:17;;;;;;;32.70;19.80;;;;;;;7.02;63.44;100466.10;436123;1281;143731;-68
2022/10/12 19:15:25;;;;;;;32.80;17.30;;;;;;;6.64;64.40;100474.68;436884;1275;142724;-68
2022/10/12 19:25:30;;;;;;;31.30;17.40;;;;;;;6.27;65.01;100478.86;436894;1277;145957;-68
2022/10/12 19:35:38;;;;;;;33.60;18.40;;;;;;;5.98;65.54;100481.45;436024;1275;142850;-68
2022/10/12 19:45:45;;;;;;;28.80;17.80;;;;;;;5.73;66.02;100479.76;427387;1274;143028;-68
2022/10/12 19:55:50;;;;;;;33.20;17.10;;;;;;;5.46;66.47;100483.14;431329;1281;143328;-68
2022/10/12 20:05:57;;;;;;;52.40;20.20;;;;;;;5.25;67.33;100483.52;435958;1284;185755;-69
2022/10/12 20:16:03;;;;;;;35.80;17.30;;;;;;;5.08;67.84;100482.60;432284;1281;142447;-68
2022/10/12 20:26:13;;;;;;;49.70;23.00;;;;;;;4.90;68.16;100475.80;435175;1289;142826;-69
2022/10/12 20:36:22;;;;;;;41.80;21.20;;;;;;;4.81;69.19;100478.11;420151;1275;210657;-69
2022/10/12 20:46:29;;;;;;;38.40;25.00;;;;;;;4.75;69.88;100476.54;420940;1281;143011;-69
2022/10/12 20:56:35;;;;;;;49.20;23.60;;;;;;;4.89;71.45;100480.48;419850;1275;143941;-69
2022/10/12 21:06:41;;;;;;;33.70;22.50;;;;;;;4.66;70.39;100475.54;420986;1275;144891;-69
2022/10/12 21:16:47;;;;;;;36.90;23.60;;;;;;;4.73;72.53;100470.16;420851;1275;142628;-69
2022/10/12 21:26:53;;;;;;;36.60;24.20;;;;;;;4.53;71.35;100471.52;420009;1272;147175;-70
2022/10/12 21:36:59;;;;;;;35.80;22.60;;;;;;;4.19;70.82;100473.38;424156;1280;141174;-70
2022/10/12 21:47:05;;;;;;;34.40;23.30;;;;;;;3.91;70.89;100471.40;420268;1274;142153;-68
2022/10/12 21:57:11;;;;;;;34.70;24.40;;;;;;;3.69;70.88;100474.12;430918;1278;143553;-67
2022/10/12 22:07:17;;;;;;;30.60;22.80;;;;;;;3.47;70.90;100473.03;421529;1274;142179;-69
2022/10/12 22:17:23;;;;;;;32.20;23.50;;;;;;;3.29;71.23;100467.50;420034;1274;142510;-68
2022/10/12 22:27:30;;;;;;;29.90;23.10;;;;;;;3.12;71.66;100472.14;420318;1274;382272;-69
2022/10/12 22:37:35;;;;;;;44.60;24.40;;;;;;;2.98;72.01;100472.05;420907;1274;142535;-68
2022/10/12 22:47:41;;;;;;;36.10;24.60;;;;;;;2.86;72.38;100469.66;425919;1279;142096;-69
2022/10/12 22:57:47;;;;;;;46.10;25.70;;;;;;;2.82;73.07;100469.56;436753;1283;144992;-69
2022/10/12 23:07:52;;;;;;;47.00;27.50;;;;;;;2.90;73.37;100473.76;436533;1272;142681;-70
2022/10/12 23:17:58;;;;;;;40.10;25.90;;;;;;;2.94;73.77;100467.09;435945;1281;142033;-69
2022/10/12 23:28:04;;;;;;;43.70;26.40;;;;;;;2.87;73.15;100466.55;436772;1281;144078;-67
2022/10/12 23:38:10;;;;;;;38.30;25.60;;;;;;;2.71;73.04;100472.36;424261;1274;198185;-69
2022/10/12 23:48:16;;;;;;;42.00;27.80;;;;;;;2.52;73.21;100465.23;420183;1275;209306;-68
2022/10/12 23:58:22;;;;;;;44.60;29.20;;;;;;;2.39;73.39;100465.98;420466;1274;188356;-68
